Homer, Ohio
Current Conditions -  °F | °C
As of 4:35 AM on Thursday 23 Oct 2014 (Local Time) from K4I3 Reporting Station
Clear Clear  
Wind Chill: 37°   Ceiling: Unl
Heat Index: 41°   Visibility: 7mi
Dew Point: 39°   Wind: 6mph
Humidity: 93%   Direction: 310°NW
Pressure: 30.21"   Gusts: NA
Location:  40.25°N, 82.51°W
Report Text: K4I3 230835Z AUTO 31005KT 7SM CLR 05/04 A3021 RMK AO2
Loading
Personal Weather Stations






























Interactive Weather Map
Tropical Storm Tracking
New forecast layout! Learn more

10-Day Weather Forecast

Advertisements
Track Severe Weather on mobile